METAR Data
IDs: Format: Raw Decoded Include TAF

Data at: 2003 UTC 25 Oct 2021

ESTA 251950Z AUTO 13006KT 7000 BR BKN012/// OVC022/// 08/07 Q1014 REDZ